createdAt,value
2022-12-18T00:02:22.914Z,102450.56
2022-12-18T00:04:52.045Z,102453.25
2022-12-18T00:07:19.743Z,102456.81
2022-12-18T00:09:47.689Z,102465.75
2022-12-18T00:14:43.476Z,102477.38
2022-12-18T00:17:11.108Z,102466.66
2022-12-18T00:19:38.681Z,102465.78
2022-12-18T00:22:08.095Z,102466.66
2022-12-18T00:24:35.781Z,102470.25
2022-12-18T00:27:03.391Z,102472.03
2022-12-18T00:29:31.002Z,102471.13
2022-12-18T00:31:58.803Z,102474.69
2022-12-18T00:34:26.415Z,102468.44
2022-12-18T00:36:54.248Z,102472.91
2022-12-18T00:39:24.598Z,102479.16
2022-12-18T00:42:10.032Z,102476.47
2022-12-18T00:44:37.678Z,102470.22
2022-12-18T00:47:05.338Z,102463.97
2022-12-18T00:49:33.000Z,102463.97
2022-12-18T00:52:00.885Z,102461.28
2022-12-18T00:54:29.923Z,102465.75
2022-12-18T00:56:58.024Z,102466.66
2022-12-18T00:59:25.875Z,102466.66
2022-12-18T01:01:53.655Z,102464.88
2022-12-18T01:04:21.888Z,102467.53
2022-12-18T01:06:49.465Z,102462.19
2022-12-18T01:09:17.133Z,102455.03
2022-12-18T01:11:46.106Z,102454.13
2022-12-18T01:14:13.786Z,102452.34
2022-12-18T01:16:41.492Z,102463.06
2022-12-18T01:19:09.594Z,102460.38
2022-12-18T01:21:37.921Z,102467.53
2022-12-18T01:24:06.384Z,102466.66
2022-12-18T01:26:34.878Z,102471.13
2022-12-18T01:29:03.992Z,102464.00
2022-12-18T01:31:32.530Z,102455.94
2022-12-18T01:34:02.259Z,102460.44
2022-12-18T01:36:31.120Z,102456.00
2022-12-18T01:39:00.839Z,102457.78
2022-12-18T01:41:51.802Z,102449.75
2022-12-18T01:44:38.029Z,102458.69
2022-12-18T01:47:07.303Z,102445.28
2022-12-18T01:49:34.886Z,102439.94
2022-12-18T01:52:02.619Z,102446.19
2022-12-18T01:54:30.837Z,102449.78
2022-12-18T01:56:58.501Z,102450.66
2022-12-18T01:59:26.096Z,102455.19
2022-12-18T02:01:54.070Z,102458.75
2022-12-18T02:04:24.668Z,102460.53
2022-12-18T02:06:55.594Z,102462.34
2022-12-18T02:09:28.622Z,102466.81
2022-12-18T02:12:00.897Z,102460.56
2022-12-18T02:14:33.816Z,102456.97
2022-12-18T02:17:04.209Z,102454.31
2022-12-18T02:19:57.033Z,102455.22
2022-12-18T02:22:28.611Z,102451.69
2022-12-18T02:25:03.284Z,102449.91
2022-12-18T02:27:33.331Z,102446.31
2022-12-18T02:30:02.020Z,102447.22
2022-12-18T02:32:33.623Z,102449.91
2022-12-18T02:35:01.565Z,102441.88
2022-12-18T02:37:32.577Z,102435.59
2022-12-18T02:40:04.368Z,102424.88
2022-12-18T02:42:34.774Z,102424.88
2022-12-18T02:45:04.581Z,102425.75
2022-12-18T02:47:34.521Z,102428.44
2022-12-18T02:50:07.327Z,102435.59
2022-12-18T02:52:39.363Z,102436.50
2022-12-18T02:55:15.313Z,102443.66
2022-12-18T02:57:51.009Z,102452.59
2022-12-18T03:00:23.675Z,102442.75
2022-12-18T03:02:56.398Z,102449.00
2022-12-18T03:05:26.848Z,102435.59
2022-12-18T03:07:58.559Z,102435.59
2022-12-18T03:10:31.168Z,102424.88
2022-12-18T03:13:04.905Z,102434.69
2022-12-18T03:15:37.217Z,102432.91
2022-12-18T03:18:12.810Z,102425.75
2022-12-18T03:20:43.298Z,102427.56
2022-12-18T03:23:16.159Z,102423.97
2022-12-18T03:25:49.385Z,102419.50
2022-12-18T03:28:21.683Z,102417.72
2022-12-18T03:30:56.092Z,102422.19
2022-12-18T03:33:26.008Z,102419.53
2022-12-18T03:35:55.520Z,102413.28
2022-12-18T03:38:23.902Z,102427.56
2022-12-18T03:40:58.968Z,102419.53
2022-12-18T03:43:33.871Z,102416.84
2022-12-18T03:46:05.217Z,102423.09
2022-12-18T03:48:36.402Z,102423.09
2022-12-18T03:51:12.436Z,102416.00
2022-12-18T03:53:43.880Z,102411.53
2022-12-18T03:56:15.136Z,102408.81
2022-12-18T03:58:45.610Z,102411.50
2022-12-18T04:01:22.028Z,102407.94
2022-12-18T04:03:51.630Z,102409.75
2022-12-18T04:06:21.043Z,102408.84
2022-12-18T04:08:48.950Z,102404.38
2022-12-18T04:11:21.569Z,102399.03
2022-12-18T04:13:50.956Z,102402.53
2022-12-18T04:16:23.974Z,102399.91
2022-12-18T04:18:55.682Z,102405.28
2022-12-18T04:21:25.722Z,102390.97
2022-12-18T04:23:54.155Z,102396.34
2022-12-18T04:26:23.829Z,102391.88
2022-12-18T04:29:02.944Z,102395.47
2022-12-18T04:31:30.659Z,102390.09
2022-12-18T04:33:58.415Z,102399.03
2022-12-18T04:36:27.788Z,102402.59
2022-12-18T04:38:56.276Z,102397.25
2022-12-18T04:41:24.369Z,102395.44
2022-12-18T04:43:54.548Z,102389.19
2022-12-18T04:46:23.662Z,102395.47
2022-12-18T04:48:51.248Z,102396.34
2022-12-18T04:51:24.646Z,102384.75
2022-12-18T04:53:53.951Z,102394.59
2022-12-18T04:56:21.528Z,102391.00
2022-12-18T04:58:49.135Z,102381.19
2022-12-18T05:01:17.545Z,102382.06
2022-12-18T05:03:46.850Z,102374.06
2022-12-18T05:06:14.431Z,102366.03
2022-12-18T05:08:42.093Z,102366.94
2022-12-18T05:11:10.689Z,102366.88
2022-12-18T05:13:39.286Z,102373.19
2022-12-18T05:16:07.821Z,102373.19
2022-12-18T05:18:35.733Z,102374.97
2022-12-18T05:21:04.708Z,102372.28
2022-12-18T05:23:36.553Z,102373.19
2022-12-18T05:26:05.968Z,102369.59
2022-12-18T05:28:35.731Z,102361.56
2022-12-18T05:31:04.588Z,102362.47
2022-12-18T05:33:32.951Z,102364.25
2022-12-18T05:36:01.575Z,102374.09
2022-12-18T05:38:30.985Z,102380.34
2022-12-18T05:40:58.743Z,102390.16
2022-12-18T05:43:27.339Z,102389.22
2022-12-18T05:45:55.460Z,102392.84
2022-12-18T05:48:23.651Z,102393.69
2022-12-18T05:50:51.870Z,102393.69
2022-12-18T05:53:20.679Z,102405.31
2022-12-18T05:55:49.803Z,102406.19
2022-12-18T05:58:17.701Z,102407.06
2022-12-18T06:00:46.426Z,102412.44
2022-12-18T06:03:15.348Z,102416.91
2022-12-18T06:05:44.239Z,102424.03
2022-12-18T06:08:11.879Z,102424.00
2022-12-18T06:10:39.547Z,102435.59
2022-12-18T06:13:08.748Z,102440.06
2022-12-18T06:15:38.471Z,102449.00
2022-12-18T06:18:06.085Z,102449.00
2022-12-18T06:20:34.182Z,102441.81
2022-12-18T06:23:01.837Z,102447.16
2022-12-18T06:25:29.412Z,102443.59
2022-12-18T06:27:56.998Z,102440.88
2022-12-18T06:30:25.959Z,102440.88
2022-12-18T06:32:56.692Z,102435.53
2022-12-18T06:35:24.489Z,102431.94
2022-12-18T06:37:52.102Z,102431.03
2022-12-18T06:40:20.087Z,102423.00
2022-12-18T06:42:47.664Z,102415.81
2022-12-18T06:45:15.386Z,102414.06
2022-12-18T06:47:44.455Z,102411.38
2022-12-18T06:50:12.319Z,102406.03
2022-12-18T06:52:40.493Z,102404.25
2022-12-18T06:55:08.976Z,102394.41
2022-12-18T06:57:36.522Z,102393.53
2022-12-18T07:00:05.147Z,102390.91
2022-12-18T07:02:33.069Z,102386.44
2022-12-18T07:05:07.486Z,102392.69
2022-12-18T07:07:38.049Z,102390.91
2022-12-18T07:10:05.986Z,102389.19
2022-12-18T07:12:33.631Z,102387.41
2022-12-18T07:15:01.282Z,102386.50
2022-12-18T07:17:29.359Z,102397.25
2022-12-18T07:19:56.953Z,102403.50
2022-12-18T07:22:26.755Z,102390.09
2022-12-18T07:24:54.369Z,102398.16
2022-12-18T07:27:22.006Z,102401.72
2022-12-18T07:29:49.623Z,102409.78
2022-12-18T07:32:17.256Z,102393.69
2022-12-18T07:34:44.843Z,102389.22
2022-12-18T07:37:12.507Z,102385.66
2022-12-18T07:39:41.424Z,102385.66
2022-12-18T07:42:26.396Z,102382.06
2022-12-18T07:44:54.630Z,102391.03
2022-12-18T07:47:22.554Z,102390.16
2022-12-18T07:49:50.202Z,102396.38
2022-12-18T07:52:20.316Z,102384.75
2022-12-18T07:54:53.351Z,102381.16
2022-12-18T07:57:48.857Z,102386.53
2022-12-18T08:00:13.397Z,102399.03
2022-12-18T08:02:41.097Z,102379.31
2022-12-18T08:05:10.351Z,102373.94
2022-12-18T08:07:37.984Z,102363.22
2022-12-18T08:10:08.098Z,102361.41
2022-12-18T08:12:35.804Z,102354.25
2022-12-18T08:15:03.442Z,102358.72
2022-12-18T08:17:31.766Z,102354.25
2022-12-18T08:19:59.333Z,102354.25
2022-12-18T08:22:26.985Z,102349.78
2022-12-18T08:24:54.639Z,102344.41
2022-12-18T08:27:30.952Z,102340.84
2022-12-18T08:29:59.008Z,102320.28
2022-12-18T08:32:26.701Z,102312.22
2022-12-18T08:34:54.473Z,102320.28
2022-12-18T08:37:22.181Z,102320.28
2022-12-18T08:39:49.888Z,102324.69
2022-12-18T08:42:46.510Z,102330.06
2022-12-18T08:45:15.699Z,102323.81
2022-12-18T08:47:43.851Z,102317.53
2022-12-18T08:50:12.251Z,102329.13
2022-12-18T08:52:39.860Z,102315.72
2022-12-18T08:55:08.306Z,102322.81
2022-12-18T08:57:35.914Z,102326.34
2022-12-18T09:00:28.483Z,102319.13
2022-12-18T09:02:57.754Z,102323.56
2022-12-18T09:05:25.382Z,102320.81
2022-12-18T09:07:53.015Z,102317.16
2022-12-18T09:10:20.638Z,102308.19
2022-12-18T09:12:48.524Z,102312.59
2022-12-18T09:15:17.088Z,102295.53
2022-12-18T09:17:44.805Z,102299.97
2022-12-18T09:20:13.955Z,102305.28
2022-12-18T09:22:42.768Z,102302.53
2022-12-18T09:25:10.411Z,102297.09
2022-12-18T09:27:38.088Z,102305.06
2022-12-18T09:30:06.598Z,102314.00
2022-12-18T09:32:34.265Z,102307.66
2022-12-18T09:35:02.537Z,102304.03
2022-12-18T09:37:31.534Z,102307.53
2022-12-18T09:40:02.097Z,102303.94
2022-12-18T09:42:29.848Z,102296.66
2022-12-18T09:44:57.761Z,102283.19
2022-12-18T09:47:27.062Z,102271.47
2022-12-18T09:50:00.931Z,102275.91
2022-12-18T09:52:31.094Z,102286.63
2022-12-18T09:55:02.459Z,102283.88
2022-12-18T09:57:32.072Z,102281.16
2022-12-18T10:00:05.968Z,102278.44
2022-12-18T10:02:39.783Z,102277.53
2022-12-18T10:05:11.466Z,102261.34
2022-12-18T10:07:46.309Z,102266.69
2022-12-18T10:10:21.847Z,102279.22
2022-12-18T10:12:59.596Z,102264.88
2022-12-18T10:15:34.890Z,102268.47
2022-12-18T10:18:08.389Z,102258.59
2022-12-18T10:20:39.720Z,102256.81
2022-12-18T10:23:13.937Z,102255.00
2022-12-18T10:25:47.342Z,102247.84
2022-12-18T10:28:15.969Z,102256.78
2022-12-18T10:30:44.619Z,102254.03
2022-12-18T10:33:16.950Z,102243.28
2022-12-18T10:35:45.284Z,102235.19
2022-12-18T10:38:23.639Z,102235.16
2022-12-18T10:40:55.924Z,102232.47
2022-12-18T10:43:25.130Z,102227.91
2022-12-18T10:46:03.463Z,102228.75
2022-12-18T10:48:32.206Z,102233.22
2022-12-18T10:51:15.337Z,102225.09
2022-12-18T10:53:44.702Z,102208.94
2022-12-18T10:56:13.989Z,102209.81
2022-12-18T10:58:42.368Z,102212.47
2022-12-18T11:01:12.241Z,102190.03
2022-12-18T11:03:41.111Z,102194.44
2022-12-18T11:06:10.549Z,102194.44
2022-12-18T11:08:38.855Z,102192.59
2022-12-18T11:11:09.668Z,102189.88
2022-12-18T11:13:38.839Z,102205.06
2022-12-18T11:16:06.789Z,102185.34
2022-12-18T11:18:35.828Z,102190.69
2022-12-18T11:21:08.284Z,102176.28
2022-12-18T11:23:36.443Z,102190.53
2022-12-18T11:26:05.579Z,102186.03
2022-12-18T11:28:43.277Z,102182.41
2022-12-18T11:31:22.090Z,102176.94
2022-12-18T11:34:26.891Z,102164.38
2022-12-18T11:36:44.384Z,102156.28
2022-12-18T11:39:15.997Z,102173.31
2022-12-18T11:42:05.794Z,102158.94
2022-12-18T11:44:40.200Z,102154.44
2022-12-18T11:47:12.623Z,102134.69
2022-12-18T11:49:41.623Z,102148.16
2022-12-18T11:52:16.478Z,102140.06
2022-12-18T11:54:44.236Z,102140.06
2022-12-18T11:57:16.581Z,102145.47
2022-12-18T11:59:51.466Z,102147.19
2022-12-18T12:03:42.233Z,102154.91
2022-12-18T12:06:16.664Z,102137.84
2022-12-18T12:08:59.389Z,102137.81
2022-12-18T12:11:39.464Z,102137.84
2022-12-18T12:14:21.346Z,102145.00
2022-12-18T12:16:57.316Z,102146.84
2022-12-18T12:19:39.807Z,102141.44
2022-12-18T12:22:15.549Z,102125.41
2022-12-18T12:24:54.238Z,102123.56
2022-12-18T12:27:31.000Z,102128.06
2022-12-18T12:30:06.128Z,102114.63
2022-12-18T12:32:50.279Z,102121.81
2022-12-18T12:35:31.636Z,102130.78
2022-12-18T12:38:09.799Z,102126.28
2022-12-18T12:40:55.346Z,102122.72
2022-12-18T12:43:36.843Z,102099.44
2022-12-18T12:46:07.891Z,102105.72
2022-12-18T12:48:45.593Z,102106.59
2022-12-18T12:51:20.180Z,102105.72
2022-12-18T12:53:49.208Z,102121.91
2022-12-18T12:56:20.075Z,102139.81
2022-12-18T12:58:56.835Z,102121.88
2022-12-18T13:01:31.762Z,102124.75
2022-12-18T13:04:11.234Z,102112.09
2022-12-18T13:06:46.336Z,102124.66
2022-12-18T13:09:14.371Z,102128.28
2022-12-18T13:12:01.941Z,102130.09
2022-12-18T13:14:33.123Z,102113.09
2022-12-18T13:17:30.829Z,102108.63
2022-12-18T13:20:08.984Z,102107.72
2022-12-18T13:22:40.100Z,102108.66
2022-12-18T13:25:33.472Z,102092.59
2022-12-18T13:28:13.646Z,102090.81
2022-12-18T13:30:53.439Z,102078.28
2022-12-18T13:34:16.677Z,102089.03
2022-12-18T13:36:34.772Z,102064.97
2022-12-18T13:39:37.367Z,102057.84
2022-12-18T13:43:00.542Z,102056.06
2022-12-18T13:45:47.701Z,102064.13
2022-12-18T13:48:27.919Z,102059.66
2022-12-18T13:51:02.978Z,102059.63
2022-12-18T13:53:36.739Z,102046.19
2022-12-18T13:56:07.938Z,102044.38
2022-12-18T13:58:36.448Z,102060.50
2022-12-18T14:01:05.786Z,102045.25
2022-12-18T14:03:33.993Z,102038.91
2022-12-18T14:06:05.673Z,102042.50
2022-12-18T14:08:41.529Z,102042.50
2022-12-18T14:11:22.209Z,102030.78
2022-12-18T14:13:51.796Z,102024.56
2022-12-18T14:16:20.194Z,102033.47
2022-12-18T14:18:55.559Z,102036.16
2022-12-18T14:21:28.799Z,102025.41
2022-12-18T14:24:07.446Z,102027.16
2022-12-18T14:26:36.738Z,102024.53
2022-12-18T14:29:21.552Z,102028.97
2022-12-18T14:32:13.315Z,102024.53
2022-12-18T14:34:44.724Z,102012.88
2022-12-18T14:37:13.612Z,102003.91
2022-12-18T14:39:41.806Z,101998.56
2022-12-18T14:42:13.835Z,102004.84
2022-12-18T14:45:05.085Z,102007.63
2022-12-18T14:47:29.597Z,102004.06
2022-12-18T14:49:57.507Z,101995.00
2022-12-18T14:52:31.339Z,102001.28
2022-12-18T14:54:59.208Z,101987.91
2022-12-18T14:57:34.771Z,101987.88
2022-12-18T15:00:09.357Z,101988.81
2022-12-18T15:02:38.390Z,101981.66
2022-12-18T15:05:12.902Z,102009.50
2022-12-18T15:07:45.484Z,101988.81
2022-12-18T15:10:16.890Z,101993.31
2022-12-18T15:12:48.388Z,101979.00
2022-12-18T15:15:46.826Z,101983.53
2022-12-18T15:18:17.821Z,101990.75
2022-12-18T15:20:49.224Z,101976.44
2022-12-18T15:23:20.497Z,101977.31
2022-12-18T15:25:50.097Z,101974.66
2022-12-18T15:28:23.982Z,101975.53
2022-12-18T15:31:07.225Z,101972.78
2022-12-18T15:33:38.152Z,101980.94
2022-12-18T15:36:10.886Z,101972.88
2022-12-18T15:38:38.801Z,101963.97
2022-12-18T15:41:10.245Z,101967.50
2022-12-18T15:43:43.043Z,101984.53
2022-12-18T15:46:14.354Z,101983.59
2022-12-18T15:48:44.205Z,101963.91
2022-12-18T15:51:18.226Z,101978.22
2022-12-18T15:53:47.274Z,101970.19
2022-12-18T15:56:34.747Z,101984.53
2022-12-18T15:59:06.991Z,101972.03
2022-12-18T16:01:38.295Z,101956.78
2022-12-18T16:04:12.684Z,101967.56
2022-12-18T16:07:12.869Z,101960.38
2022-12-18T16:09:28.644Z,101971.16
2022-12-18T16:11:56.623Z,101980.13
2022-12-18T16:14:27.984Z,101987.31
2022-12-18T16:16:58.345Z,101988.19
2022-12-18T16:19:26.899Z,101987.38
2022-12-18T16:21:56.879Z,101973.94
2022-12-18T16:24:26.948Z,101992.78
2022-12-18T16:26:55.615Z,101989.16
2022-12-18T16:29:27.985Z,101991.88
2022-12-18T16:31:55.967Z,101987.44
2022-12-18T16:34:28.804Z,101982.03
2022-12-18T16:37:03.347Z,101971.34
2022-12-18T16:39:34.969Z,101965.97
2022-12-18T16:42:05.757Z,101960.59
2022-12-18T16:44:36.002Z,101953.41
2022-12-18T16:47:04.321Z,101957.94
2022-12-18T16:49:32.724Z,101963.31
2022-12-18T16:52:00.711Z,101964.25
2022-12-18T16:54:30.399Z,101975.03
2022-12-18T16:56:58.776Z,101961.59
2022-12-18T16:59:27.550Z,101958.91
2022-12-18T17:01:57.477Z,101963.38
2022-12-18T17:04:25.416Z,101973.25
2022-12-18T17:06:53.936Z,101973.28
2022-12-18T17:09:25.316Z,101956.19
2022-12-18T17:11:54.315Z,101961.59
2022-12-18T17:14:24.152Z,101960.72
2022-12-18T17:17:19.146Z,101948.19
2022-12-18T17:19:41.702Z,101964.31
2022-12-18T17:22:09.539Z,101961.66
2022-12-18T17:24:37.527Z,101962.56
2022-12-18T17:27:06.004Z,101951.81
2022-12-18T17:29:33.978Z,101944.66
2022-12-18T17:32:01.796Z,101940.16
2022-12-18T17:34:29.800Z,101932.09
2022-12-18T17:36:59.670Z,101937.44
2022-12-18T17:39:28.704Z,101933.91
2022-12-18T17:41:56.795Z,101947.44
2022-12-18T17:44:24.634Z,101937.53
2022-12-18T17:46:52.478Z,101946.47
2022-12-18T17:49:20.356Z,101935.72
2022-12-18T17:51:48.474Z,101938.41
2022-12-18T17:54:17.674Z,101948.28
2022-12-18T17:56:45.463Z,101960.00
2022-12-18T17:59:13.500Z,101959.09
2022-12-18T18:01:44.727Z,101960.94
2022-12-18T18:04:13.626Z,101959.16
2022-12-18T18:06:41.649Z,101946.59
2022-12-18T18:09:13.420Z,101946.59
2022-12-18T18:12:04.372Z,101964.53
2022-12-18T18:14:33.008Z,101951.16
2022-12-18T18:17:04.039Z,101953.91
2022-12-18T18:19:33.478Z,101967.34
2022-12-18T18:22:01.758Z,101948.47
2022-12-18T18:24:30.953Z,101950.34
2022-12-18T18:27:00.638Z,101961.97
2022-12-18T18:29:31.136Z,101957.53
2022-12-18T18:31:59.302Z,101958.41
2022-12-18T18:34:30.431Z,101963.81
2022-12-18T18:36:58.348Z,101950.38
2022-12-18T18:39:26.595Z,101956.63
2022-12-18T18:41:54.639Z,101968.31
2022-12-18T18:44:25.720Z,101954.00
2022-12-18T18:46:54.953Z,101979.09
2022-12-18T18:49:24.140Z,101948.69
2022-12-18T18:51:52.116Z,101961.19
2022-12-18T18:54:20.879Z,101950.50
2022-12-18T18:59:39.131Z,101944.25
2022-12-18T19:02:07.583Z,101949.59
2022-12-18T19:04:36.549Z,101942.44
2022-12-18T19:07:08.230Z,101950.53
2022-12-18T19:09:37.496Z,101940.66
2022-12-18T19:12:23.180Z,101937.06
2022-12-18T19:14:52.421Z,101930.81
2022-12-18T19:17:23.695Z,101949.59
2022-12-18T19:19:55.856Z,101946.88
2022-12-18T19:22:24.308Z,101932.56
2022-12-18T19:24:52.419Z,101940.56
2022-12-18T19:27:20.291Z,101936.97
2022-12-18T19:29:50.524Z,101928.94
2022-12-18T19:32:19.786Z,101935.16
2022-12-18T19:34:48.213Z,101942.31
2022-12-18T19:37:16.876Z,101950.38
2022-12-18T19:39:45.639Z,101934.25
2022-12-18T19:42:13.533Z,101939.59
2022-12-18T19:44:41.281Z,101932.47
2022-12-18T19:47:09.065Z,101922.56
2022-12-18T19:49:38.646Z,101924.34
2022-12-18T19:52:06.671Z,101908.25
2022-12-18T19:54:34.643Z,101925.22
2022-12-18T19:57:02.586Z,101924.28
2022-12-18T19:59:30.427Z,101926.06
2022-12-18T20:01:58.434Z,101930.50
2022-12-18T20:04:26.452Z,101943.06
2022-12-18T20:06:55.997Z,101948.38
2022-12-18T20:09:23.954Z,101931.34
2022-12-18T20:11:53.213Z,101946.56
2022-12-18T20:14:22.912Z,101959.03
2022-12-18T20:16:52.332Z,101950.13
2022-12-18T20:19:21.497Z,101948.25
2022-12-18T20:21:49.566Z,101946.44
2022-12-18T20:24:18.713Z,101939.25
2022-12-18T20:26:46.872Z,101955.34
2022-12-18T20:29:14.941Z,101940.09
2022-12-18T20:31:43.135Z,101932.00
2022-12-18T20:34:11.199Z,101932.00
2022-12-18T20:36:39.830Z,101938.22
2022-12-18T20:39:10.015Z,101932.84
2022-12-18T20:41:40.851Z,101926.50
2022-12-18T20:44:23.040Z,101927.41
2022-12-18T20:46:54.349Z,101933.69
2022-12-18T20:49:22.703Z,101930.09
2022-12-18T20:51:52.349Z,101939.91
2022-12-18T20:54:20.554Z,101944.41
2022-12-18T20:56:49.896Z,101938.09
2022-12-18T20:59:17.897Z,101938.09
2022-12-18T21:01:49.020Z,101937.22
2022-12-18T21:04:18.277Z,101943.41
2022-12-18T21:06:50.980Z,101950.59
2022-12-18T21:09:19.494Z,101942.53
2022-12-18T21:12:04.593Z,101951.41
2022-12-18T21:14:33.940Z,101949.59
2022-12-18T21:17:02.317Z,101942.44
2022-12-18T21:19:31.130Z,101935.22
2022-12-18T21:21:59.606Z,101939.69
2022-12-18T21:24:28.202Z,101927.97
2022-12-18T21:26:59.997Z,101927.09
2022-12-18T21:29:27.942Z,101933.31
2022-12-18T21:31:57.258Z,101934.19
2022-12-18T21:34:27.304Z,101928.81
2022-12-18T21:36:56.461Z,101928.81
2022-12-18T21:39:25.360Z,101935.97
2022-12-18T21:42:11.558Z,101934.19
2022-12-18T21:44:42.088Z,101936.88
2022-12-18T21:47:20.889Z,101935.03
2022-12-18T21:49:50.414Z,101918.94
2022-12-18T21:52:18.258Z,101908.16
2022-12-18T21:54:46.105Z,101917.09
2022-12-18T21:57:14.328Z,101911.72
2022-12-18T21:59:43.801Z,101910.72
2022-12-18T22:02:15.641Z,101905.34
2022-12-18T22:04:44.642Z,101902.75
2022-12-18T22:07:13.651Z,101899.97
2022-12-18T22:09:41.584Z,101890.16
2022-12-18T22:12:11.587Z,101889.22
2022-12-18T22:14:39.517Z,101882.06
2022-12-18T22:17:07.327Z,101886.59
2022-12-18T22:19:42.807Z,101878.47
2022-12-18T22:22:11.152Z,101877.59
2022-12-18T22:24:39.136Z,101872.19
2022-12-18T22:27:07.021Z,101864.09
2022-12-18T22:29:58.153Z,101864.09
2022-12-18T22:32:31.179Z,101865.09
2022-12-18T22:35:06.244Z,101860.53
2022-12-18T22:37:36.100Z,101851.59
2022-12-18T22:40:07.523Z,101852.47
2022-12-18T22:42:36.432Z,101853.38
2022-12-18T22:45:04.378Z,101849.78
2022-12-18T22:47:32.460Z,101851.56
2022-12-18T22:50:01.566Z,101854.22
2022-12-18T22:52:29.392Z,101850.66
2022-12-18T22:54:57.151Z,101842.56
2022-12-18T22:57:25.753Z,101830.84
2022-12-18T22:59:53.471Z,101817.47
2022-12-18T23:02:21.469Z,101818.31
2022-12-18T23:04:49.612Z,101815.63
2022-12-18T23:07:19.030Z,101812.94
2022-12-18T23:09:47.038Z,101824.63
2022-12-18T23:12:17.880Z,101813.88
2022-12-18T23:14:47.138Z,101809.38
2022-12-18T23:17:15.058Z,101803.97
2022-12-18T23:19:48.794Z,101805.72
2022-12-18T23:22:18.639Z,101803.97
2022-12-18T23:24:47.309Z,101796.78
2022-12-18T23:27:15.209Z,101801.25
2022-12-18T23:29:43.000Z,101810.16
2022-12-18T23:32:13.146Z,101802.09
2022-12-18T23:34:41.082Z,101789.53
2022-12-18T23:37:08.896Z,101782.34
2022-12-18T23:39:38.050Z,101777.81
2022-12-18T23:42:06.048Z,101779.63
2022-12-18T23:44:34.148Z,101772.47
2022-12-18T23:47:01.985Z,101773.31
2022-12-18T23:49:29.745Z,101770.63
2022-12-18T23:51:58.037Z,101744.59
2022-12-18T23:54:32.904Z,101754.44
2022-12-18T23:57:03.185Z,101751.69
2022-12-18T23:59:30.908Z,101758.97
